Time;durP1;ratioP1;P1;durP2;ratioP2;P2;SDS_P1;SDS_P2;PMS_P1;PMS_P2;Temp;Humidity;BMP_temperature;BMP_pressure;BME280_temperature;BME280_humidity;BME280_pressure;Samples;Min_cycle;Max_cycle;Signal;HPM_P1;HPM_P2
2021/05/21 00:05:40;;;;;;;13.53;7.53;;;;;;;11.38;100.00;99157.86;4232820;84;28530;-78
2021/05/21 00:11:41;;;;;;;17.32;8.85;;;;;;;11.37;100.00;99157.56;4211102;84;28497;-78
2021/05/21 00:17:42;;;;;;;17.25;9.30;;;;;;;11.36;100.00;99155.13;4255497;83;28489;-78
2021/05/21 00:23:44;;;;;;;16.93;9.33;;;;;;;11.35;100.00;99154.81;4265137;83;28514;-78
2021/05/21 00:29:45;;;;;;;15.08;8.48;;;;;;;11.23;100.00;99149.44;4248798;83;28505;-78
2021/05/21 00:35:46;;;;;;;16.48;8.35;;;;;;;11.13;100.00;99144.09;4260133;83;28501;-78
2021/05/21 00:41:48;;;;;;;13.32;7.72;;;;;;;11.14;100.00;99147.59;4265885;83;28550;-78
2021/05/21 00:47:49;;;;;;;17.00;8.93;;;;;;;11.19;100.00;99145.55;4255341;83;28596;-78
2021/05/21 00:53:51;;;;;;;16.82;8.93;;;;;;;11.13;100.00;99140.06;4273276;83;28612;-77
2021/05/21 00:59:54;;;;;;;20.05;9.38;;;;;;;11.05;100.00;99138.25;4277724;83;28549;-78
2021/05/21 01:05:55;;;;;;;20.55;9.95;;;;;;;10.86;100.00;99136.44;4276281;83;28494;-77
2021/05/21 01:11:57;;;;;;;14.93;8.75;;;;;;;10.81;100.00;99131.45;4276376;83;28613;-77
2021/05/21 01:17:58;;;;;;;15.60;9.08;;;;;;;10.82;100.00;99122.34;4258567;83;28471;-77
2021/05/21 01:23:59;;;;;;;14.45;8.63;;;;;;;10.76;100.00;99120.05;4220620;83;28512;-77
2021/05/21 01:30:02;;;;;;;17.30;9.70;;;;;;;10.94;100.00;99115.64;4208048;83;28531;-76
2021/05/21 01:36:04;;;;;;;17.82;10.20;;;;;;;10.83;100.00;99114.05;4181448;84;28512;-76
2021/05/21 01:42:06;;;;;;;17.87;10.63;;;;;;;10.64;100.00;99116.51;4185236;83;28544;-77
2021/05/21 01:48:12;;;;;;;17.15;10.10;;;;;;;10.58;100.00;99118.25;4183326;84;28544;-77
2021/05/21 01:54:16;;;;;;;17.67;9.65;;;;;;;10.49;100.00;99111.55;4181126;84;28514;-78
2021/05/21 02:00:18;;;;;;;16.57;8.48;;;;;;;10.45;100.00;99107.16;4184973;84;28555;-77
2021/05/21 02:06:19;;;;;;;19.37;11.43;;;;;;;10.60;100.00;99110.77;4179587;84;28546;-78
2021/05/21 02:12:25;;;;;;;17.77;10.45;;;;;;;10.48;100.00;99104.03;4183204;84;28552;-78
2021/05/21 02:18:26;;;;;;;19.47;10.80;;;;;;;10.43;100.00;99099.34;4180434;84;28488;-77
2021/05/21 02:24:29;;;;;;;21.50;11.75;;;;;;;10.24;100.00;99099.05;4157742;84;28546;-77
2021/05/21 02:30:30;;;;;;;18.50;10.50;;;;;;;10.10;100.00;99091.69;4207645;83;28509;-77
2021/05/21 02:36:32;;;;;;;16.42;9.98;;;;;;;10.06;100.00;99099.91;4210892;83;28550;-77
2021/05/21 02:42:33;;;;;;;16.87;9.25;;;;;;;10.02;100.00;99104.38;4231105;83;28523;-77
2021/05/21 02:48:35;;;;;;;18.35;10.60;;;;;;;10.21;100.00;99105.70;4229551;83;28503;-77
2021/05/21 02:54:36;;;;;;;19.15;10.28;;;;;;;10.21;100.00;99102.20;4228231;83;28512;-77
2021/05/21 03:00:37;;;;;;;17.02;10.90;;;;;;;10.25;100.00;99101.50;4232971;82;28503;-76
2021/05/21 03:06:38;;;;;;;15.15;9.28;;;;;;;10.35;100.00;99107.69;4231982;83;28565;-79
2021/05/21 03:12:40;;;;;;;15.93;9.53;;;;;;;10.35;100.00;99100.97;4168693;84;28585;-79
2021/05/21 03:18:41;;;;;;;17.02;10.03;;;;;;;10.46;100.00;99100.22;4192399;84;28545;-79
2021/05/21 03:24:42;;;;;;;16.57;9.65;;;;;;;10.49;100.00;99099.45;4224389;84;28501;-78
2021/05/21 03:30:44;;;;;;;15.93;9.90;;;;;;;10.71;100.00;99086.31;4194002;84;28539;-80
2021/05/21 03:36:46;;;;;;;13.38;7.75;;;;;;;10.71;100.00;99091.16;4302184;81;28536;-79
2021/05/21 03:42:48;;;;;;;15.40;8.38;;;;;;;11.11;100.00;99088.36;4326451;81;28530;-79
2021/05/21 03:48:50;;;;;;;15.03;8.40;;;;;;;11.33;100.00;99072.97;4304569;81;28506;-78
2021/05/21 03:54:51;;;;;;;13.55;8.05;;;;;;;11.23;100.00;99075.42;4327294;81;28515;-79
2021/05/21 04:00:54;;;;;;;13.53;7.37;;;;;;;11.54;100.00;99089.56;4338538;81;28567;-78
2021/05/21 04:06:56;;;;;;;11.85;7.08;;;;;;;11.66;100.00;99088.19;4314323;81;28559;-77
2021/05/21 04:12:57;;;;;;;9.08;6.10;;;;;;;11.91;100.00;99091.94;4357357;81;28570;-77
2021/05/21 04:19:00;;;;;;;12.10;7.05;;;;;;;12.07;100.00;99091.73;4337002;81;28602;-77
2021/05/21 04:25:01;;;;;;;13.10;7.75;;;;;;;11.89;100.00;99091.91;4333152;81;28509;-78
2021/05/21 04:31:02;;;;;;;14.60;7.45;;;;;;;12.07;100.00;99089.59;4355044;81;28618;-78
2021/05/21 04:37:04;;;;;;;15.85;6.92;;;;;;;12.59;100.00;99085.14;4371004;81;28543;-82
2021/05/21 04:43:05;;;;;;;9.98;6.70;;;;;;;12.84;100.00;99095.55;4334442;81;28601;-77
2021/05/21 04:49:06;;;;;;;13.58;7.05;;;;;;;13.14;100.00;99086.30;4359612;81;28613;-75
2021/05/21 04:55:09;;;;;;;13.55;7.35;;;;;;;13.43;100.00;99086.16;4340291;80;28551;-77
2021/05/21 05:01:11;;;;;;;12.37;6.65;;;;;;;13.68;100.00;99075.98;4173001;83;28593;-83
2021/05/21 05:07:12;;;;;;;11.70;6.85;;;;;;;13.99;100.00;99076.35;4219968;82;28526;-77
2021/05/21 05:13:13;;;;;;;10.68;6.92;;;;;;;13.90;100.00;99078.17;4198291;82;28516;-80
2021/05/21 05:19:15;;;;;;;9.70;5.90;;;;;;;14.04;100.00;99081.83;4249941;83;28542;-77
2021/05/21 05:25:16;;;;;;;9.05;5.95;;;;;;;14.39;100.00;99068.39;4234548;83;28568;-80
2021/05/21 05:31:19;;;;;;;13.62;5.95;;;;;;;14.57;100.00;99066.41;4243626;82;28532;-77
2021/05/21 05:37:20;;;;;;;9.15;5.30;;;;;;;15.13;100.00;99065.23;4278436;82;28580;-76
2021/05/21 05:43:22;;;;;;;8.93;4.20;;;;;;;15.51;96.96;99070.59;4274540;82;28525;-77
2021/05/21 05:49:23;;;;;;;7.80;4.15;;;;;;;15.87;94.50;99059.93;4254581;82;28643;-78
2021/05/21 05:55:25;;;;;;;7.92;4.00;;;;;;;16.29;88.05;99061.70;4261759;82;28614;-77
2021/05/21 06:01:26;;;;;;;6.87;4.20;;;;;;;16.83;81.73;99064.99;4282591;82;28538;-78
2021/05/21 06:07:29;;;;;;;8.13;4.25;;;;;;;17.15;75.96;99053.60;4263552;82;28522;-76
2021/05/21 06:13:30;;;;;;;8.58;4.85;;;;;;;17.18;72.10;99057.12;4259755;82;28544;-77
2021/05/21 06:19:31;;;;;;;8.10;4.45;;;;;;;17.63;73.70;99044.21;4245473;82;28533;-77
2021/05/21 06:25:52;;;;;;;6.08;4.03;;;;;;;17.78;73.02;99040.08;4309613;81;28484;-76
2021/05/21 06:31:42;;;;;;;9.93;4.05;;;;;;;17.89;70.41;99038.67;4335234;81;28620;-76
2021/05/21 06:37:43;;;;;;;6.45;3.47;;;;;;;17.93;67.75;99029.67;4329347;81;28525;-78
2021/05/21 06:43:45;;;;;;;4.65;3.00;;;;;;;18.47;64.97;99020.91;4334360;80;28496;-78
2021/05/21 06:49:47;;;;;;;7.20;3.60;;;;;;;18.75;61.35;99011.17;4312674;80;28464;-77
2021/05/21 06:55:50;;;;;;;6.20;3.60;;;;;;;18.63;63.78;99007.45;4318708;80;28488;-77
2021/05/21 07:01:51;;;;;;;7.35;3.75;;;;;;;18.96;63.46;98993.27;4322194;80;28524;-76
2021/05/21 07:07:53;;;;;;;2.83;2.22;;;;;;;18.99;60.10;98987.23;4146614;83;28523;-76
2021/05/21 07:13:54;;;;;;;2.72;2.20;;;;;;;18.81;58.16;98975.17;4219043;82;28530;-76
2021/05/21 07:19:56;;;;;;;3.50;2.00;;;;;;;18.78;58.92;98974.36;4201159;83;28509;-76
2021/05/21 07:25:57;;;;;;;4.20;1.80;;;;;;;18.79;60.37;98968.64;4185971;83;28479;-76
2021/05/21 07:31:58;;;;;;;3.90;1.60;;;;;;;18.68;59.02;98972.56;4178327;83;28514;-76
2021/05/21 07:38:00;;;;;;;2.58;1.90;;;;;;;18.63;58.41;98959.80;4183453;83;28579;-78
2021/05/21 07:44:02;;;;;;;2.85;1.60;;;;;;;19.10;59.23;98956.63;4161912;83;28497;-76
2021/05/21 07:50:07;;;;;;;3.12;1.70;;;;;;;18.95;54.66;98956.20;4196748;82;28489;-76
2021/05/21 07:56:09;;;;;;;2.60;2.10;;;;;;;18.56;54.73;98948.42;4209418;82;28580;-75
2021/05/21 08:02:11;;;;;;;5.72;2.10;;;;;;;18.75;53.09;98949.89;4322498;80;28614;-75
2021/05/21 08:08:13;;;;;;;2.72;2.02;;;;;;;18.42;56.35;98936.02;4312716;80;28592;-76
2021/05/21 08:14:15;;;;;;;2.52;1.82;;;;;;;18.83;59.27;98934.83;4312229;80;28553;-76
2021/05/21 08:20:16;;;;;;;2.87;1.80;;;;;;;18.99;53.83;98924.58;4316855;80;28482;-75
2021/05/21 08:26:18;;;;;;;2.08;1.50;;;;;;;19.20;56.50;98921.64;4311356;80;28535;-74
2021/05/21 08:32:19;;;;;;;5.25;1.50;;;;;;;19.23;52.20;98920.52;4305447;80;28519;-75
2021/05/21 08:38:21;;;;;;;1.70;1.40;;;;;;;19.09;54.22;98926.39;4318841;80;28545;-76
2021/05/21 08:44:23;;;;;;;1.82;0.98;;;;;;;19.23;50.40;98915.59;4329097;80;28569;-78
2021/05/21 08:50:26;;;;;;;1.80;1.00;;;;;;;19.31;47.65;98899.14;4168760;83;28522;-77
2021/05/21 08:56:27;;;;;;;1.72;0.95;;;;;;;19.26;46.73;98894.56;4163385;83;28535;-80
2021/05/21 09:02:29;;;;;;;1.95;0.80;;;;;;;19.58;47.45;98892.25;4190048;83;28581;-77
2021/05/21 09:08:46;;;;;;;3.30;1.02;;;;;;;19.71;49.07;98864.80;4187182;83;28498;-78
2021/05/21 09:15:07;;;;;;;2.02;1.10;;;;;;;19.35;46.94;98869.64;4189932;83;28570;-76
2021/05/21 09:21:10;;;;;;;1.50;0.90;;;;;;;19.74;49.24;98862.83;4191988;84;28548;-80
2021/05/21 09:27:15;;;;;;;1.50;0.80;;;;;;;20.12;47.58;98857.34;4182283;84;28595;-81
2021/05/21 09:33:16;;;;;;;2.52;1.00;;;;;;;20.45;45.67;98855.11;4186834;84;28588;-80
2021/05/21 09:39:19;;;;;;;1.12;0.80;;;;;;;20.44;43.02;98835.75;4194095;84;28557;-82
2021/05/21 09:45:32;;;;;;;1.40;1.00;;;;;;;20.34;42.34;98829.36;4190387;84;28556;-81
2021/05/21 09:51:33;;;;;;;1.92;0.80;;;;;;;20.50;45.02;98815.44;4192699;83;28519;-81
2021/05/21 09:57:36;;;;;;;1.98;0.80;;;;;;;20.54;43.31;98815.08;4194886;84;28554;-80
2021/05/21 10:03:41;;;;;;;1.17;0.40;;;;;;;20.79;39.85;98803.40;4194412;84;28542;-82
2021/05/21 10:09:43;;;;;;;2.60;0.70;;;;;;;21.07;36.79;98790.28;4195498;84;28609;-81
2021/05/21 10:15:44;;;;;;;3.67;0.50;;;;;;;21.43;36.94;98778.50;4185947;84;28499;-78
2021/05/21 10:21:45;;;;;;;2.33;0.62;;;;;;;21.64;34.90;98780.20;4188867;84;28594;-79
2021/05/21 10:27:51;;;;;;;1.35;0.82;;;;;;;22.04;36.51;98774.59;4181215;84;28574;-79
2021/05/21 10:34:21;;;;;;;0.87;0.77;;;;;;;21.65;38.29;98767.31;4182987;83;28605;-79
2021/05/21 10:40:41;;;;;;;1.17;0.60;;;;;;;21.79;39.09;98763.17;4178787;84;28599;-79
2021/05/21 10:47:15;;;;;;;3.52;1.00;;;;;;;21.80;35.21;98740.16;4178833;84;28595;-79
2021/05/21 10:53:16;;;;;;;2.27;1.10;;;;;;;20.85;35.66;98727.06;4175624;84;43272;-79
2021/05/21 10:59:18;;;;;;;1.25;0.68;;;;;;;21.44;37.81;98713.94;4175824;84;28502;-79
2021/05/21 11:05:36;;;;;;;2.77;1.00;;;;;;;21.37;36.36;98709.46;4169378;84;28550;-79
2021/05/21 11:12:00;;;;;;;2.45;0.85;;;;;;;21.15;36.97;98700.14;4180721;84;28556;-78
2021/05/21 11:18:19;;;;;;;1.60;0.70;;;;;;;21.52;36.47;98689.13;4171565;84;28541;-80
2021/05/21 11:24:42;;;;;;;2.25;0.70;;;;;;;21.34;35.70;98677.83;4171977;84;28517;-76
2021/05/21 11:30:47;;;;;;;4.05;0.80;;;;;;;21.90;36.54;98666.59;4167663;84;28569;-77
2021/05/21 11:36:56;;;;;;;1.10;0.80;;;;;;;22.14;36.81;98664.24;4189388;84;28515;-76
2021/05/21 11:42:59;;;;;;;1.22;0.80;;;;;;;22.13;35.17;98648.16;4190465;84;28641;-76
2021/05/21 11:49:00;;;;;;;2.70;0.70;;;;;;;22.46;36.07;98647.73;4187649;84;28595;-77
2021/05/21 11:55:02;;;;;;;3.02;0.53;;;;;;;22.52;32.95;98625.92;4191336;84;28572;-77
2021/05/21 12:01:05;;;;;;;3.02;0.62;;;;;;;22.74;32.03;98636.48;4195308;84;28584;-77
2021/05/21 12:07:26;;;;;;;2.95;0.60;;;;;;;23.20;32.08;98627.91;4200756;84;28542;-77
2021/05/21 12:13:30;;;;;;;0.90;0.53;;;;;;;23.24;30.25;98631.59;4183907;84;28539;-76
2021/05/21 12:19:31;;;;;;;0.70;0.53;;;;;;;23.47;30.39;98608.91;4197021;84;28550;-77
2021/05/21 12:25:37;;;;;;;1.70;0.53;;;;;;;23.70;30.36;98614.72;4193665;84;28563;-77
2021/05/21 12:31:43;;;;;;;;;;;;;;;23.65;28.99;98600.03;4195871;84;28525;-78
2021/05/21 12:37:49;;;;;;;1.10;0.70;;;;;;;24.08;30.29;98595.49;4188855;84;20207;-77
2021/05/21 12:43:50;;;;;;;1.57;0.75;;;;;;;24.28;29.46;98589.54;4193382;84;28524;-77
2021/05/21 12:49:51;;;;;;;1.10;0.50;;;;;;;23.57;28.81;98595.38;4192389;84;28533;-77
2021/05/21 12:55:53;;;;;;;1.67;0.65;;;;;;;24.08;28.70;98586.44;4182740;84;28523;-76
2021/05/21 13:01:58;;;;;;;0.78;0.70;;;;;;;24.51;29.95;98571.58;4187636;83;28570;-78
2021/05/21 13:08:05;;;;;;;1.17;0.62;;;;;;;24.98;30.27;98557.37;4188050;84;28559;-79
2021/05/21 13:14:08;;;;;;;4.97;0.82;;;;;;;24.96;29.67;98551.97;4225333;82;28567;-78
2021/05/21 13:20:16;;;;;;;2.12;0.60;;;;;;;25.16;30.38;98544.81;4192750;83;28522;-77
2021/05/21 13:26:17;;;;;;;1.17;0.80;;;;;;;25.10;28.05;98544.23;4184447;83;28495;-79
2021/05/21 13:32:23;;;;;;;1.12;0.80;;;;;;;25.04;29.29;98541.45;4186263;83;28559;-80
2021/05/21 13:38:25;;;;;;;2.02;0.60;;;;;;;25.25;28.85;98541.95;4184816;83;28560;-81
2021/05/21 13:44:27;;;;;;;0.98;0.70;;;;;;;24.58;29.73;98541.39;4186262;84;28568;-81
2021/05/21 13:50:28;;;;;;;5.50;0.70;;;;;;;25.42;29.01;98531.30;4186767;84;28515;-79
2021/05/21 13:56:31;;;;;;;0.47;0.40;;;;;;;25.23;29.74;98531.28;4185266;84;28609;-82
2021/05/21 14:02:34;;;;;;;2.40;0.53;;;;;;;25.09;28.37;98530.81;4179372;84;28528;-82
2021/05/21 14:08:36;;;;;;;2.47;0.57;;;;;;;25.03;27.99;98528.84;4191230;83;28645;-82
2021/05/21 14:14:37;;;;;;;1.65;0.45;;;;;;;25.31;28.51;98530.97;4177030;83;28574;-82
2021/05/21 14:20:38;;;;;;;5.55;0.70;;;;;;;25.08;28.33;98535.49;4190105;84;28629;-82
2021/05/21 14:26:42;;;;;;;2.60;0.68;;;;;;;25.20;28.28;98527.84;4184400;84;28584;-83
2021/05/21 14:32:46;;;;;;;2.35;0.42;;;;;;;25.01;28.21;98532.52;4184852;84;28530;-84
2021/05/21 14:38:48;;;;;;;1.32;0.50;;;;;;;24.98;28.45;98520.25;4191974;84;28650;-87
2021/05/21 14:44:49;;;;;;;3.05;0.50;;;;;;;24.90;28.98;98520.58;4186022;84;28509;-86
2021/05/21 14:50:50;;;;;;;2.10;0.57;;;;;;;25.00;29.16;98504.80;4190139;84;28560;-88
2021/05/21 14:56:54;;;;;;;1.10;0.90;;;;;;;24.86;29.14;98507.27;4233550;82;28534;-85
2021/05/21 15:02:58;;;;;;;0.70;0.40;;;;;;;25.15;30.02;98515.70;4201505;82;28507;-87
2021/05/21 15:09:01;;;;;;;1.85;0.70;;;;;;;24.41;29.59;98506.64;4187346;83;28631;-86
2021/05/21 15:15:08;;;;;;;0.65;0.50;;;;;;;24.33;29.33;98500.09;4181327;83;28505;-85
2021/05/21 15:27:26;;;;;;;2.05;0.80;;;;;;;24.40;29.24;98495.42;4196417;84;28530;-86
2021/05/21 15:33:30;;;;;;;1.95;0.53;;;;;;;24.21;28.44;98489.28;4230079;82;28665;-86
2021/05/21 15:39:32;;;;;;;1.52;0.82;;;;;;;24.26;28.79;98484.13;4260549;82;28563;-84
2021/05/21 15:45:34;;;;;;;4.10;0.50;;;;;;;24.03;29.11;98486.41;4269969;82;28622;-85
2021/05/21 15:51:44;;;;;;;1.75;0.60;;;;;;;24.51;29.08;98476.00;4292176;82;28482;-83
2021/05/21 15:58:01;;;;;;;1.50;0.60;;;;;;;24.51;29.37;98469.13;4261536;82;28568;-87
2021/05/21 16:04:01;;;;;;;1.00;0.40;;;;;;;24.73;29.57;98461.63;4272548;82;28517;-84
2021/05/21 16:10:06;;;;;;;1.35;0.70;;;;;;;24.80;30.22;98459.72;4258407;82;28529;-86
2021/05/21 16:16:08;;;;;;;1.35;0.70;;;;;;;24.44;30.16;98460.63;4274579;82;28564;-85
2021/05/21 16:22:11;;;;;;;3.50;0.70;;;;;;;24.51;30.08;98460.30;4280900;82;28518;-87
2021/05/21 16:28:13;;;;;;;1.70;0.57;;;;;;;24.60;30.71;98462.16;4266814;82;28588;-86
2021/05/21 16:34:15;;;;;;;1.55;0.60;;;;;;;24.36;30.18;98460.95;4223916;82;28517;-85
2021/05/21 16:40:17;;;;;;;1.92;0.70;;;;;;;24.27;29.72;98461.59;4202219;84;28940;-85
2021/05/21 16:46:18;;;;;;;1.32;0.88;;;;;;;24.46;30.38;98455.03;4183660;83;28505;-84
2021/05/21 16:52:30;;;;;;;1.30;0.70;;;;;;;24.48;30.99;98462.36;4189632;84;28563;-85
2021/05/21 16:58:26;;;;;;;4.03;1.05;;;;;;;24.27;30.95;98461.04;4174438;84;28548;-85
2021/05/21 17:04:28;;;;;;;3.55;1.02;;;;;;;24.01;31.45;98459.27;4179845;84;28548;-83
2021/05/21 17:10:30;;;;;;;2.27;1.10;;;;;;;23.83;31.73;98457.23;4202001;84;28573;-85
2021/05/21 17:47:09;;;;;;;3.10;1.70;;;;;;;22.73;34.67;98464.99;4269801;82;28563;-85
2021/05/21 18:12:57;;;;;;;3.05;1.20;;;;;;;20.80;42.60;98477.20;4273954;82;28545;-85
2021/05/21 18:24:57;;;;;;;5.25;1.67;;;;;;;20.36;45.63;98469.27;4255378;82;28534;-83
2021/05/21 18:43:39;;;;;;;3.00;1.20;;;;;;;19.62;54.43;98466.53;4195112;84;28564;-82
2021/05/21 19:01:56;;;;;;;7.95;1.98;;;;;;;19.30;54.36;98484.09;4192352;84;28599;-83
2021/05/21 19:08:09;;;;;;;9.53;1.60;;;;;;;19.15;55.88;98483.83;4190194;84;28537;-83
2021/05/21 19:14:21;;;;;;;4.22;1.42;;;;;;;19.09;55.88;98491.29;4198133;84;28514;-85
2021/05/21 19:20:12;;;;;;;4.50;1.22;;;;;;;19.28;50.74;98486.31;4188492;84;28544;-83
2021/05/21 19:26:13;;;;;;;2.08;1.10;;;;;;;19.48;47.54;98493.84;4189328;84;28634;-83
2021/05/21 19:32:20;;;;;;;2.90;1.10;;;;;;;19.48;47.46;98494.63;4195335;84;28568;-83
2021/05/21 20:15:21;;;;;;;3.22;2.20;;;;;;;19.48;57.20;98517.00;4266532;81;28560;-84
2021/05/21 20:21:23;;;;;;;3.42;1.80;;;;;;;19.33;64.20;98513.45;4257849;81;28591;-85
2021/05/21 20:27:30;;;;;;;4.62;1.60;;;;;;;19.26;67.12;98508.95;4259932;81;28500;-83
2021/05/21 21:05:13;;;;;;;3.02;1.40;;;;;;;18.53;84.02;98504.77;4162123;84;28600;-87
2021/05/21 21:29:44;;;;;;;2.05;1.40;;;;;;;18.04;100.00;98492.44;4191286;83;28516;-85
2021/05/21 21:42:22;;;;;;;4.08;1.67;;;;;;;17.96;100.00;98448.45;4180668;84;28533;-86
2021/05/21 21:54:27;;;;;;;2.62;1.32;;;;;;;17.96;100.00;98447.63;4187873;84;28536;-83
2021/05/21 22:00:58;;;;;;;2.80;1.40;;;;;;;17.61;100.00;98449.22;4164400;84;28521;-85
2021/05/21 22:07:00;;;;;;;3.30;1.72;;;;;;;17.73;100.00;98441.97;4178803;84;28593;-85
2021/05/21 22:25:06;;;;;;;3.10;1.70;;;;;;;17.14;100.00;98406.88;4164414;84;28549;-87
2021/05/21 22:31:08;;;;;;;3.62;1.98;;;;;;;17.04;100.00;98392.06;4167866;84;28501;-84
2021/05/21 22:37:09;;;;;;;9.63;2.42;;;;;;;16.89;100.00;98376.73;4185989;84;28567;-83
2021/05/21 22:43:11;;;;;;;3.12;1.90;;;;;;;17.06;100.00;98370.28;4165425;84;28572;-84
2021/05/21 22:49:12;;;;;;;5.50;2.37;;;;;;;17.02;100.00;98382.84;4165231;84;28532;-83
2021/05/21 22:55:14;;;;;;;2.87;1.98;;;;;;;17.03;100.00;98385.81;4165343;84;28536;-82
2021/05/21 23:01:15;;;;;;;4.87;2.58;;;;;;;16.80;100.00;98401.79;4165092;84;28540;-82
2021/05/21 23:07:17;;;;;;;6.45;2.50;;;;;;;16.53;100.00;98403.70;4165412;84;28627;-83
2021/05/21 23:13:19;;;;;;;5.05;2.30;;;;;;;16.88;100.00;98404.41;4165338;84;28489;-84
2021/05/21 23:19:20;;;;;;;4.70;2.10;;;;;;;16.19;100.00;98406.70;4185135;84;28598;-84
2021/05/21 23:25:21;;;;;;;4.17;2.08;;;;;;;16.47;100.00;98415.68;4165294;84;28589;-83
2021/05/21 23:31:22;;;;;;;3.25;2.08;;;;;;;16.05;100.00;98422.00;4165177;84;28591;-84
2021/05/21 23:37:23;;;;;;;3.35;2.00;;;;;;;15.45;100.00;98435.85;4198731;83;28536;-81
2021/05/21 23:43:25;;;;;;;3.40;1.72;;;;;;;16.04;100.00;98429.31;4221201;83;28502;-83
2021/05/21 23:49:26;;;;;;;3.85;1.95;;;;;;;16.10;100.00;98426.02;4244814;83;28626;-82
2021/05/21 23:55:27;;;;;;;5.42;1.57;;;;;;;16.10;100.00;98421.42;4229215;82;28935;-82
